Time;durP1;ratioP1;P1;durP2;ratioP2;P2;SDS_P1;SDS_P2;PMS_P1;PMS_P2;Temp;Humidity;BMP_temperature;BMP_pressure;BME280_temperature;BME280_humidity;BME280_pressure;Samples;Min_cycle;Max_cycle;Signal;HPM_P1;HPM_P2
2021/03/04 00:01:59;;;;;;;82.33;39.40;;;;;;;4.28;66.45;100573.98;2029608;85;21666;-72
2021/03/04 00:05:00;;;;;;;82.78;40.90;;;;;;;4.26;66.43;100570.62;2024972;85;21183;-72
2021/03/04 00:08:04;;;;;;;83.78;40.55;;;;;;;4.26;66.45;100569.31;2024617;86;22147;-72
2021/03/04 00:11:05;;;;;;;80.45;39.83;;;;;;;4.24;66.47;100560.70;2024571;86;21195;-71
2021/03/04 00:14:07;;;;;;;77.40;37.70;;;;;;;4.21;66.46;100556.99;2023111;85;21654;-72
2021/03/04 00:17:09;;;;;;;73.95;38.80;;;;;;;4.20;66.54;100553.53;2027664;86;21196;-72
2021/03/04 00:20:15;;;;;;;74.77;36.25;;;;;;;4.18;66.51;100547.55;2018051;86;21657;-71
2021/03/04 00:23:17;;;;;;;74.03;34.00;;;;;;;4.16;66.50;100542.05;2030330;85;21929;-72
2021/03/04 00:26:19;;;;;;;69.70;33.73;;;;;;;4.15;66.52;100533.34;2024699;86;21166;-72
2021/03/04 00:29:20;;;;;;;77.60;34.63;;;;;;;4.16;66.46;100537.63;2072152;84;21191;-72
2021/03/04 00:32:22;;;;;;;79.35;38.02;;;;;;;4.19;66.54;100530.83;2048538;84;21179;-71
2021/03/04 00:35:24;;;;;;;79.32;38.75;;;;;;;4.25;66.50;100530.84;2074550;84;21172;-72
2021/03/04 00:38:26;;;;;;;76.35;37.08;;;;;;;4.28;66.46;100514.87;2068625;84;21244;-71
2021/03/04 00:41:28;;;;;;;73.65;36.33;;;;;;;4.34;66.48;100517.52;2076198;84;21580;-72
2021/03/04 00:44:30;;;;;;;71.28;35.55;;;;;;;4.36;66.45;100515.09;2074132;84;21238;-72
2021/03/04 00:47:31;;;;;;;68.55;36.58;;;;;;;4.36;66.47;100501.96;2073150;84;21246;-71
2021/03/04 00:50:33;;;;;;;70.72;35.80;;;;;;;4.36;66.45;100497.19;2043563;84;21219;-71
2021/03/04 00:53:35;;;;;;;79.97;34.75;;;;;;;4.32;66.34;100493.97;2042854;85;21195;-71
2021/03/04 00:56:37;;;;;;;79.72;35.92;;;;;;;4.29;66.39;100490.27;2037672;86;22259;-72
2021/03/04 00:59:38;;;;;;;72.53;34.10;;;;;;;4.25;66.41;100487.05;2038550;86;21139;-71
2021/03/04 01:02:40;;;;;;;72.20;34.45;;;;;;;4.21;66.33;100482.96;2037275;86;21182;-71
2021/03/04 01:05:42;;;;;;;73.40;34.85;;;;;;;4.17;66.39;100478.08;2046987;86;21691;-71
2021/03/04 01:08:45;;;;;;;68.00;33.42;;;;;;;4.10;66.32;100471.61;2047458;86;21136;-71
2021/03/04 01:11:47;;;;;;;67.62;32.40;;;;;;;4.04;66.29;100469.80;2044924;86;21148;-71
2021/03/04 01:14:48;;;;;;;65.25;32.17;;;;;;;3.98;66.34;100462.39;2043324;86;21173;-72
2021/03/04 01:17:51;;;;;;;64.97;31.82;;;;;;;3.92;66.41;100460.23;2044303;86;21158;-71
2021/03/04 01:20:53;;;;;;;66.15;31.37;;;;;;;3.89;66.38;100458.32;2041861;86;21131;-72
2021/03/04 01:23:55;;;;;;;71.67;33.53;;;;;;;3.85;66.63;100448.50;2043917;86;21171;-72
2021/03/04 01:26:56;;;;;;;64.40;30.10;;;;;;;3.79;66.69;100445.03;2048720;86;21194;-72
2021/03/04 01:29:58;;;;;;;65.67;30.08;;;;;;;3.76;66.68;100440.02;2044229;86;21179;-72
2021/03/04 01:33:00;;;;;;;67.92;29.67;;;;;;;3.71;66.68;100439.52;2039697;86;21671;-72
2021/03/04 01:36:02;;;;;;;60.90;30.02;;;;;;;3.65;66.83;100436.05;2013846;87;21219;-71
2021/03/04 01:39:07;;;;;;;66.45;30.95;;;;;;;3.61;66.89;100433.30;2010441;87;21559;-71
2021/03/04 01:42:08;;;;;;;61.40;30.17;;;;;;;3.57;66.89;100440.06;1996481;87;21143;-72
2021/03/04 01:45:12;;;;;;;67.40;31.50;;;;;;;3.50;66.95;100438.86;1994792;88;21176;-71
2021/03/04 01:48:13;;;;;;;61.20;29.25;;;;;;;3.49;67.10;100436.34;1996907;87;21257;-71
2021/03/04 01:51:15;;;;;;;65.12;28.70;;;;;;;3.46;67.33;100430.84;2022166;87;21197;-71
2021/03/04 01:54:18;;;;;;;60.03;27.50;;;;;;;3.44;67.41;100431.45;2023347;87;21156;-71
2021/03/04 01:57:20;;;;;;;58.15;27.60;;;;;;;3.44;67.30;100422.27;2020361;87;22873;-72
2021/03/04 02:00:23;;;;;;;59.33;28.87;;;;;;;3.46;67.35;100429.53;2020086;87;21199;-71
2021/03/04 02:03:26;;;;;;;63.87;30.05;;;;;;;3.46;67.32;100416.89;2021005;87;21170;-71
2021/03/04 02:06:49;;;;;;;61.50;28.45;;;;;;;3.48;67.35;100413.69;2023580;87;21616;-71
2021/03/04 02:09:56;;;;;;;56.42;26.82;;;;;;;3.51;67.46;100410.35;2018163;87;21159;-71
2021/03/04 02:13:16;;;;;;;61.28;26.55;;;;;;;3.53;67.36;100411.56;2018227;87;21115;-71
2021/03/04 02:16:31;;;;;;;57.85;27.30;;;;;;;3.48;67.47;100407.13;2020102;87;22501;-71
2021/03/04 02:20:05;;;;;;;58.90;27.07;;;;;;;3.44;67.54;100406.53;2022434;87;21184;-71
2021/03/04 02:23:23;;;;;;;58.30;25.75;;;;;;;3.43;67.51;100402.21;2018990;87;21235;-71
2021/03/04 02:26:45;;;;;;;59.10;27.73;;;;;;;3.37;67.54;100400.05;1994958;87;21755;-71
2021/03/04 02:30:10;;;;;;;53.38;24.92;;;;;;;3.34;67.63;100400.28;2024403;87;21120;-71
2021/03/04 02:33:22;;;;;;;54.15;24.50;;;;;;;3.34;67.89;100400.28;2017784;87;21235;-71
2021/03/04 02:36:25;;;;;;;60.43;25.43;;;;;;;3.36;67.83;100399.70;2022994;87;21104;-71
2021/03/04 02:39:29;;;;;;;52.17;25.48;;;;;;;3.39;67.78;100392.08;2003117;87;21143;-71
2021/03/04 02:42:32;;;;;;;53.17;25.20;;;;;;;3.43;67.78;100387.78;2020462;85;21236;-71
2021/03/04 02:45:35;;;;;;;57.88;25.40;;;;;;;3.48;67.75;100386.97;2021222;87;21263;-72
2021/03/04 02:48:39;;;;;;;51.25;24.80;;;;;;;3.48;67.68;100390.91;2023416;86;21187;-71
2021/03/04 02:51:42;;;;;;;56.35;27.87;;;;;;;3.45;67.59;100385.89;2016789;86;21672;-72
2021/03/04 02:54:45;;;;;;;56.08;25.12;;;;;;;3.41;67.76;100385.77;2023863;86;21142;-71
2021/03/04 02:57:49;;;;;;;52.80;26.23;;;;;;;3.40;67.80;100383.25;2019925;86;21190;-71
2021/03/04 03:00:51;;;;;;;52.10;25.52;;;;;;;3.38;67.97;100379.45;2020483;86;21226;-71
2021/03/04 03:03:55;;;;;;;51.73;25.08;;;;;;;3.36;68.00;100372.98;2020071;86;21212;-72
2021/03/04 03:06:57;;;;;;;57.45;24.90;;;;;;;3.37;67.89;100364.64;2018503;86;21132;-71
2021/03/04 03:09:59;;;;;;;46.48;22.62;;;;;;;3.32;67.92;100365.00;2027037;86;21604;-72
2021/03/04 03:13:03;;;;;;;47.43;21.82;;;;;;;3.35;68.05;100362.59;2021939;86;21146;-72
2021/03/04 03:16:05;;;;;;;47.65;20.90;;;;;;;3.39;67.99;100363.23;2020891;86;21203;-72
2021/03/04 03:19:07;;;;;;;45.73;21.30;;;;;;;3.41;67.94;100366.09;2027604;86;21590;-71
2021/03/04 03:22:08;;;;;;;44.90;22.17;;;;;;;3.43;67.89;100369.90;2022964;86;21128;-72
2021/03/04 03:25:12;;;;;;;50.08;21.40;;;;;;;3.47;68.02;100360.87;2026479;85;21527;-71
2021/03/04 03:28:14;;;;;;;43.52;22.07;;;;;;;3.50;67.93;100360.63;2021255;86;21109;-71
2021/03/04 03:31:19;;;;;;;44.90;22.13;;;;;;;3.50;67.91;100363.26;2017934;86;21178;-71
2021/03/04 03:34:21;;;;;;;45.58;22.40;;;;;;;3.52;68.01;100361.33;2024726;86;21179;-71
2021/03/04 03:37:23;;;;;;;45.05;24.02;;;;;;;3.53;67.91;100360.40;2020754;86;21190;-71
2021/03/04 03:40:27;;;;;;;54.70;24.47;;;;;;;3.48;67.83;100367.77;2000525;86;21197;-71
2021/03/04 03:43:30;;;;;;;50.80;26.12;;;;;;;3.48;67.99;100355.97;2023222;86;21135;-71
2021/03/04 03:46:34;;;;;;;49.35;25.37;;;;;;;3.44;67.92;100351.44;2021745;86;21173;-71
2021/03/04 03:49:38;;;;;;;65.17;31.07;;;;;;;3.41;67.97;100355.60;2024815;86;21239;-72
2021/03/04 03:52:41;;;;;;;64.72;30.15;;;;;;;3.41;68.10;100345.56;2024306;87;21572;-71
2021/03/04 03:55:49;;;;;;;60.20;28.32;;;;;;;3.37;68.00;100351.52;2020722;87;21225;-71
2021/03/04 03:58:51;;;;;;;49.08;25.77;;;;;;;3.37;68.12;100352.83;2017509;85;21176;-70
2021/03/04 04:01:55;;;;;;;46.45;23.32;;;;;;;3.32;68.09;100341.84;2021919;87;21149;-71
2021/03/04 04:04:57;;;;;;;41.83;20.35;;;;;;;3.29;68.36;100344.22;2017784;87;21129;-71
2021/03/04 04:08:01;;;;;;;49.20;22.85;;;;;;;3.31;68.54;100338.39;2018937;87;21345;-71
2021/03/04 04:11:03;;;;;;;43.48;21.52;;;;;;;3.34;68.79;100346.03;2019636;85;21136;-71
2021/03/04 04:14:05;;;;;;;39.73;20.72;;;;;;;3.37;69.06;100335.30;2023415;87;21196;-70
2021/03/04 04:17:07;;;;;;;38.58;19.65;;;;;;;3.45;68.92;100342.61;2018551;87;21199;-71
2021/03/04 04:20:10;;;;;;;46.65;21.97;;;;;;;3.52;69.33;100349.08;2034530;86;21124;-71
2021/03/04 04:23:14;;;;;;;46.28;21.60;;;;;;;3.56;69.08;100341.80;2027171;86;21254;-71
2021/03/04 04:26:17;;;;;;;45.23;21.02;;;;;;;3.59;69.15;100340.25;2026920;86;21224;-71
2021/03/04 04:29:19;;;;;;;37.25;20.40;;;;;;;3.63;69.19;100329.04;2025593;86;21833;-71
2021/03/04 04:32:21;;;;;;;47.78;22.17;;;;;;;3.65;69.17;100324.03;2023415;86;21198;-71
2021/03/04 04:35:22;;;;;;;39.10;20.40;;;;;;;3.68;69.23;100324.28;2030666;86;21152;-71
2021/03/04 04:38:24;;;;;;;45.73;21.82;;;;;;;3.70;69.23;100331.56;2027375;86;21211;-71
2021/03/04 04:41:26;;;;;;;46.13;22.82;;;;;;;3.74;69.64;100337.75;2024258;86;21170;-71
2021/03/04 04:44:27;;;;;;;49.08;23.92;;;;;;;3.78;69.48;100335.75;2028252;86;21111;-70
2021/03/04 04:47:29;;;;;;;44.63;23.27;;;;;;;3.79;69.48;100334.31;2027581;86;21225;-71
2021/03/04 04:50:31;;;;;;;48.98;23.10;;;;;;;3.78;69.51;100319.52;2022610;86;21584;-71
2021/03/04 04:53:32;;;;;;;46.37;23.85;;;;;;;3.76;69.53;100327.16;2018042;86;21239;-71
2021/03/04 04:56:34;;;;;;;48.40;23.65;;;;;;;3.76;69.60;100327.16;2036744;86;22197;-71
2021/03/04 04:59:36;;;;;;;41.08;22.48;;;;;;;3.73;69.57;100321.66;2033640;86;21248;-71
2021/03/04 05:02:38;;;;;;;42.30;21.52;;;;;;;3.70;69.74;100315.34;2034860;86;21159;-70
2021/03/04 05:05:40;;;;;;;54.70;23.73;;;;;;;3.69;69.67;100315.44;2034375;86;21574;-70
2021/03/04 05:08:42;;;;;;;46.18;23.62;;;;;;;3.67;69.81;100316.05;2036017;86;21195;-71
2021/03/04 05:11:43;;;;;;;49.73;24.72;;;;;;;3.68;69.77;100307.22;2036335;86;21168;-71
2021/03/04 05:14:45;;;;;;;49.33;25.45;;;;;;;3.69;69.89;100303.63;2034600;86;21218;-71
2021/03/04 05:17:47;;;;;;;51.95;24.72;;;;;;;3.69;69.89;100306.25;2036497;86;21196;-72
2021/03/04 05:20:48;;;;;;;53.90;24.43;;;;;;;3.69;69.94;100298.38;2035136;86;21551;-71
2021/03/04 05:23:50;;;;;;;47.10;23.40;;;;;;;3.65;69.91;100293.02;2033878;86;21231;-72
2021/03/04 05:26:51;;;;;;;45.33;23.65;;;;;;;3.58;70.01;100285.63;2035847;85;22198;-68
2021/03/04 05:29:55;;;;;;;43.35;21.80;;;;;;;3.52;70.02;100290.49;2035410;86;21188;-73
2021/03/04 05:32:56;;;;;;;42.05;22.30;;;;;;;3.50;70.30;100280.13;2032660;86;21124;-70
2021/03/04 05:35:58;;;;;;;47.20;22.70;;;;;;;3.49;70.28;100278.47;2032227;86;21281;-71
2021/03/04 05:39:02;;;;;;;50.67;23.83;;;;;;;3.51;70.65;100276.55;2031633;86;21757;-71
2021/03/04 05:42:06;;;;;;;48.17;24.05;;;;;;;3.54;70.58;100280.72;2033773;86;21128;-71
2021/03/04 05:45:11;;;;;;;55.52;27.20;;;;;;;3.55;70.65;100279.79;2031820;86;21588;-71
2021/03/04 05:48:12;;;;;;;50.50;26.87;;;;;;;3.53;70.65;100278.58;2015220;86;21132;-71
2021/03/04 05:51:17;;;;;;;57.67;29.02;;;;;;;3.54;70.83;100281.55;2024352;86;21139;-71
2021/03/04 05:54:21;;;;;;;61.23;29.07;;;;;;;3.54;71.13;100284.17;2015867;87;21271;-71
2021/03/04 05:57:23;;;;;;;58.05;27.98;;;;;;;3.56;71.02;100272.27;2015114;87;21206;-70
2021/03/04 06:00:27;;;;;;;60.65;28.05;;;;;;;3.58;71.14;100267.27;2037240;86;21180;-70
2021/03/04 06:03:29;;;;;;;57.08;25.77;;;;;;;3.64;71.19;100266.44;2038669;86;21215;-71
2021/03/04 06:06:30;;;;;;;49.60;25.70;;;;;;;3.70;71.28;100268.58;2009307;87;21203;-71
2021/03/04 06:09:32;;;;;;;52.67;27.27;;;;;;;3.77;71.31;100259.27;2010360;87;21148;-71
2021/03/04 06:12:34;;;;;;;52.88;29.10;;;;;;;3.83;71.44;100250.93;2006841;87;21209;-74
2021/03/04 06:15:37;;;;;;;62.78;31.45;;;;;;;3.89;71.34;100251.76;2009444;87;21196;-75
2021/03/04 06:18:44;;;;;;;57.17;31.07;;;;;;;3.92;71.48;100259.39;2037624;86;21119;-76
2021/03/04 06:21:45;;;;;;;64.62;33.98;;;;;;;3.98;71.46;100254.96;2015169;87;21155;-76
2021/03/04 06:24:53;;;;;;;61.00;32.25;;;;;;;4.03;71.44;100261.17;2004568;86;21164;-75
2021/03/04 06:27:55;;;;;;;67.70;32.30;;;;;;;4.08;71.59;100256.85;2023046;86;21195;-75
2021/03/04 06:30:57;;;;;;;60.20;31.42;;;;;;;4.14;71.57;100261.61;2022406;86;21140;-75
2021/03/04 06:33:59;;;;;;;59.80;33.65;;;;;;;4.19;71.63;100265.55;2021666;86;21972;-75
2021/03/04 06:37:06;;;;;;;61.35;33.40;;;;;;;4.33;71.88;100255.73;2017727;86;21583;-75
2021/03/04 06:40:23;;;;;;;70.42;34.60;;;;;;;4.45;71.96;100252.97;2022384;86;21114;-75
2021/03/04 06:43:27;;;;;;;66.70;34.10;;;;;;;4.58;72.02;100253.27;2017085;86;21188;-74
2021/03/04 06:46:29;;;;;;;72.12;36.05;;;;;;;4.67;72.35;100256.00;2021836;86;21163;-75
2021/03/04 06:49:42;;;;;;;68.87;35.58;;;;;;;4.76;71.96;100253.10;2022140;86;21207;-75
2021/03/04 06:52:44;;;;;;;70.90;37.40;;;;;;;4.86;71.94;100251.84;2026780;86;21178;-76
2021/03/04 06:55:53;;;;;;;78.05;39.00;;;;;;;4.98;72.01;100259.20;2024360;86;21620;-75
2021/03/04 06:59:01;;;;;;;72.22;38.00;;;;;;;5.15;72.01;100260.80;2022833;86;21611;-76
2021/03/04 07:02:02;;;;;;;72.17;38.48;;;;;;;5.25;72.08;100264.79;2020320;86;21163;-75
2021/03/04 07:05:06;;;;;;;71.62;36.42;;;;;;;5.33;71.86;100255.77;2020485;86;21635;-76
2021/03/04 07:08:08;;;;;;;67.58;35.38;;;;;;;5.44;71.74;100251.41;2024657;86;21216;-76
2021/03/04 07:11:22;;;;;;;81.70;39.67;;;;;;;5.51;71.68;100253.86;2024441;86;21188;-77
2021/03/04 07:14:24;;;;;;;71.80;38.38;;;;;;;5.59;71.66;100255.34;2022981;86;21175;-76
2021/03/04 07:17:28;;;;;;;71.60;37.15;;;;;;;5.73;71.62;100247.09;2022781;86;21224;-76
2021/03/04 07:20:32;;;;;;;77.65;39.03;;;;;;;5.91;71.54;100250.41;2023099;86;21251;-75
2021/03/04 07:23:37;;;;;;;71.05;38.35;;;;;;;6.02;71.44;100252.49;2001851;87;21160;-73
2021/03/04 07:26:40;;;;;;;69.12;36.42;;;;;;;6.11;71.30;100250.87;2022000;86;21653;-76
2021/03/04 07:29:47;;;;;;;71.62;37.70;;;;;;;6.17;71.18;100252.97;2019019;86;21457;-76
2021/03/04 07:32:49;;;;;;;76.97;36.90;;;;;;;6.29;71.12;100240.02;2027267;86;21205;-75
2021/03/04 07:35:50;;;;;;;73.47;39.58;;;;;;;6.47;71.02;100249.89;2025448;86;21565;-75
2021/03/04 07:39:00;;;;;;;76.13;40.60;;;;;;;6.61;70.87;100248.66;2022487;86;22417;-73
2021/03/04 07:42:03;;;;;;;81.57;39.60;;;;;;;6.74;70.61;100247.41;2023425;86;21260;-70
2021/03/04 07:45:18;;;;;;;79.60;42.98;;;;;;;6.93;70.32;100243.11;2018422;86;21204;-76
2021/03/04 07:48:21;;;;;;;81.28;43.15;;;;;;;7.03;70.31;100239.96;2021836;86;21152;-78
2021/03/04 07:51:23;;;;;;;73.30;40.95;;;;;;;7.24;69.71;100238.98;2045584;84;21247;-77
2021/03/04 07:54:29;;;;;;;80.03;41.73;;;;;;;7.35;69.87;100240.13;2076993;84;21199;-77
2021/03/04 07:57:34;;;;;;;75.03;40.25;;;;;;;7.53;69.56;100233.11;2075690;84;21239;-78
2021/03/04 08:00:36;;;;;;;71.70;39.13;;;;;;;7.64;69.34;100232.11;2073469;84;21164;-79
2021/03/04 08:03:47;;;;;;;67.30;37.55;;;;;;;7.78;69.24;100228.16;2074916;84;21179;-80
2021/03/04 08:06:51;;;;;;;72.65;39.70;;;;;;;7.88;68.42;100227.61;2082942;84;21622;-80
2021/03/04 08:10:10;;;;;;;73.78;41.30;;;;;;;7.97;68.71;100225.89;2080145;84;21918;-84
2021/03/04 08:13:14;;;;;;;74.17;41.20;;;;;;;8.02;68.54;100227.11;2076922;84;21205;-81
2021/03/04 08:16:17;;;;;;;75.72;40.98;;;;;;;8.09;68.38;100228.20;2076944;84;21579;-83
2021/03/04 08:19:26;;;;;;;82.65;44.73;;;;;;;8.19;67.95;100227.30;2077761;84;21599;-78
2021/03/04 08:22:29;;;;;;;73.70;41.90;;;;;;;8.27;67.92;100228.22;2076904;84;22222;-78
2021/03/04 08:25:32;;;;;;;74.45;40.65;;;;;;;8.38;67.93;100221.89;2076752;84;21658;-78
2021/03/04 08:28:34;;;;;;;71.92;39.40;;;;;;;8.57;67.29;100223.60;2074569;84;21686;-82
2021/03/04 08:31:47;;;;;;;76.10;43.10;;;;;;;8.62;67.08;100227.13;2078059;84;21160;-79
2021/03/04 08:34:50;;;;;;;74.90;41.35;;;;;;;8.68;67.13;100226.52;2078205;84;21215;-82
2021/03/04 08:38:12;;;;;;;78.37;42.62;;;;;;;8.81;66.36;100201.80;2065116;84;21133;-79
2021/03/04 08:41:23;;;;;;;69.15;41.80;;;;;;;8.91;66.45;100214.96;2076079;84;21556;-83
2021/03/04 08:44:24;;;;;;;77.10;43.48;;;;;;;9.10;66.60;100213.45;2083017;84;21563;-82
2021/03/04 08:47:26;;;;;;;78.12;42.88;;;;;;;9.34;65.50;100207.47;2059349;84;21678;-78
2021/03/04 08:50:39;;;;;;;78.40;43.08;;;;;;;9.40;65.42;100208.19;2080858;84;21078;-80
2021/03/04 08:53:41;;;;;;;75.25;43.33;;;;;;;9.49;64.02;100193.64;2061982;85;21378;-82
2021/03/04 08:56:52;;;;;;;77.35;42.40;;;;;;;9.58;64.37;100190.06;2041337;86;21167;-84
2021/03/04 09:00:14;;;;;;;72.92;42.75;;;;;;;9.77;64.62;100188.97;2038113;86;21199;-83
2021/03/04 09:03:15;;;;;;;75.72;41.88;;;;;;;10.01;63.72;100186.91;1955378;87;21550;-80
2021/03/04 09:06:18;;;;;;;73.10;43.42;;;;;;;9.92;62.76;100187.89;2016590;86;21105;-82
2021/03/04 09:09:30;;;;;;;76.10;42.08;;;;;;;9.71;62.88;100189.11;2078714;83;21589;-81
2021/03/04 09:12:45;;;;;;;69.05;41.10;;;;;;;9.61;63.28;100183.95;2069164;85;21168;-81
2021/03/04 09:15:55;;;;;;;74.97;42.15;;;;;;;9.49;62.97;100176.42;2068836;84;21202;-80
2021/03/04 09:19:00;;;;;;;69.42;39.05;;;;;;;9.36;62.52;100172.41;2072298;84;21880;-84
2021/03/04 09:22:09;;;;;;;74.42;40.12;;;;;;;9.30;62.33;100170.89;2075738;85;21107;-81
2021/03/04 09:25:18;;;;;;;77.55;43.13;;;;;;;9.51;62.58;100175.78;2070870;83;21763;-80
2021/03/04 09:28:19;;;;;;;70.45;39.35;;;;;;;9.74;62.37;100172.92;2069578;85;21122;-82
2021/03/04 09:31:24;;;;;;;67.05;38.85;;;;;;;9.99;62.19;100180.43;2041506;86;21067;-80
2021/03/04 09:34:44;;;;;;;72.55;41.00;;;;;;;10.16;61.12;100180.48;2040010;86;21558;-79
2021/03/04 09:37:45;;;;;;;66.87;40.23;;;;;;;10.09;61.25;100178.48;2043743;86;21185;-80
2021/03/04 09:40:50;;;;;;;67.90;37.10;;;;;;;10.10;61.69;100176.66;2041700;85;21231;-82
2021/03/04 09:44:07;;;;;;;58.17;34.10;;;;;;;10.06;60.49;100170.03;2040158;86;21165;-82
2021/03/04 09:47:20;;;;;;;56.23;33.88;;;;;;;9.84;59.85;100172.27;2045549;85;21164;-81
2021/03/04 09:50:28;;;;;;;66.57;38.17;;;;;;;9.59;60.38;100163.41;2036845;84;21146;-82
2021/03/04 09:53:33;;;;;;;70.00;40.00;;;;;;;9.56;60.66;100162.40;2029037;85;21680;-81
2021/03/04 09:56:35;;;;;;;63.78;36.23;;;;;;;9.65;60.91;100168.56;2029552;85;21748;-80
2021/03/04 09:59:54;;;;;;;61.55;35.28;;;;;;;9.59;60.08;100154.63;2027330;86;21197;-81
2021/03/04 10:03:03;;;;;;;64.47;36.30;;;;;;;9.53;60.73;100146.00;2030029;86;21172;-80
2021/03/04 10:06:08;;;;;;;61.98;34.80;;;;;;;9.71;60.97;100149.37;2026659;85;21120;-81
2021/03/04 10:09:12;;;;;;;61.95;35.60;;;;;;;10.11;60.71;100150.49;2034339;85;21165;-80
2021/03/04 10:12:15;;;;;;;62.15;34.75;;;;;;;10.61;59.85;100140.77;2028135;85;21168;-82
2021/03/04 10:15:39;;;;;;;53.25;30.92;;;;;;;10.89;58.37;100138.59;2031320;85;21142;-87
2021/03/04 10:18:50;;;;;;;55.10;33.92;;;;;;;11.11;58.24;100137.88;2027384;86;21181;-81
2021/03/04 10:21:52;;;;;;;50.95;31.37;;;;;;;11.25;57.63;100133.70;2037267;85;21121;-81
2021/03/04 10:24:53;;;;;;;53.40;32.25;;;;;;;11.19;56.51;100136.53;2037922;86;21221;-78
2021/03/04 10:27:58;;;;;;;53.83;30.60;;;;;;;11.21;56.77;100135.87;2038261;84;21163;-79
2021/03/04 10:30:59;;;;;;;56.08;32.80;;;;;;;11.10;56.25;100134.09;2076397;84;21559;-86
2021/03/04 10:34:02;;;;;;;56.28;31.93;;;;;;;11.15;56.82;100127.27;2074861;84;21143;-79
2021/03/04 10:37:05;;;;;;;52.62;31.17;;;;;;;11.25;54.58;100116.44;2076101;84;21225;-79
2021/03/04 10:40:10;;;;;;;54.42;30.08;;;;;;;11.39;55.43;100113.56;2079217;84;21127;-80
2021/03/04 10:43:12;;;;;;;51.80;30.75;;;;;;;11.61;54.65;100114.13;2011238;86;21759;-79
2021/03/04 10:46:14;;;;;;;55.43;31.23;;;;;;;11.76;54.54;100111.55;2038185;85;21148;-79
2021/03/04 10:49:16;;;;;;;55.28;31.35;;;;;;;11.76;54.54;100111.55;2030450;85;21173;-79
2021/03/04 10:52:17;;;;;;;47.35;28.87;;;;;;;11.73;54.14;100078.69;2029563;86;21234;-80
2021/03/04 10:55:20;;;;;;;45.58;28.65;;;;;;;12.05;53.63;100103.44;2029224;85;21185;-80
2021/03/04 10:58:21;;;;;;;51.42;29.35;;;;;;;11.97;53.59;100097.69;2030912;85;21685;-84
2021/03/04 11:01:24;;;;;;;47.27;29.50;;;;;;;11.72;52.82;100093.50;2029178;86;21167;-81
2021/03/04 11:04:25;;;;;;;52.80;29.87;;;;;;;11.58;53.08;100100.38;2033035;86;22275;-82
2021/03/04 11:07:29;;;;;;;49.40;28.25;;;;;;;11.56;52.62;100092.56;2031594;86;21185;-81
2021/03/04 11:10:30;;;;;;;51.45;30.30;;;;;;;11.75;53.93;100088.65;2027736;86;21212;-81
2021/03/04 11:13:32;;;;;;;50.10;30.70;;;;;;;11.96;54.14;100092.03;2030617;86;21148;-81
2021/03/04 11:16:33;;;;;;;51.18;30.52;;;;;;;12.12;53.00;100096.42;2033984;85;21142;-81
2021/03/04 11:19:38;;;;;;;46.88;28.35;;;;;;;12.16;52.45;100091.05;2026195;86;21527;-81
2021/03/04 11:22:40;;;;;;;50.20;30.15;;;;;;;12.20;52.90;100080.40;2028070;86;21188;-82
2021/03/04 11:25:42;;;;;;;49.00;29.30;;;;;;;12.35;52.85;100075.12;2034616;86;21132;-81
2021/03/04 11:28:43;;;;;;;47.78;29.45;;;;;;;12.46;51.40;100069.37;2030254;86;21178;-82
2021/03/04 11:31:45;;;;;;;48.58;27.85;;;;;;;12.50;52.12;100064.50;2030958;85;21149;-81
2021/03/04 11:34:47;;;;;;;51.65;29.60;;;;;;;12.64;52.66;100060.22;2029106;86;22090;-81
2021/03/04 11:37:48;;;;;;;44.90;27.90;;;;;;;12.73;51.98;100057.81;2028068;86;21178;-81
2021/03/04 11:40:50;;;;;;;48.20;27.73;;;;;;;12.71;51.74;100042.02;2031946;86;21173;-81
2021/03/04 11:43:52;;;;;;;47.23;29.18;;;;;;;12.70;50.78;100043.55;2027226;85;21199;-81
2021/03/04 11:46:54;;;;;;;50.45;29.65;;;;;;;12.60;50.67;100037.14;2029892;86;21631;-82
2021/03/04 11:49:56;;;;;;;50.23;29.98;;;;;;;12.73;52.06;100021.37;2026018;86;21711;-81
2021/03/04 11:52:57;;;;;;;43.55;28.57;;;;;;;12.90;51.14;100024.67;2029623;86;21701;-83
2021/03/04 11:56:00;;;;;;;45.67;28.20;;;;;;;12.95;50.62;100018.30;2026128;86;21183;-80
2021/03/04 11:59:02;;;;;;;46.53;28.98;;;;;;;12.84;49.85;100012.10;2030640;86;21124;-81
2021/03/04 12:02:05;;;;;;;50.55;29.32;;;;;;;12.83;49.40;100006.95;2005282;86;21343;-81
2021/03/04 12:05:08;;;;;;;48.95;28.95;;;;;;;12.78;50.35;100007.48;2013947;86;21215;-83
2021/03/04 12:08:09;;;;;;;50.45;29.65;;;;;;;12.83;49.78;99998.45;2012178;86;21231;-81
2021/03/04 12:11:11;;;;;;;47.88;27.62;;;;;;;12.77;49.50;99995.20;2034833;86;21116;-82
2021/03/04 12:14:12;;;;;;;51.95;30.27;;;;;;;12.75;49.96;99990.55;2027558;86;21196;-81
2021/03/04 12:17:14;;;;;;;48.23;29.63;;;;;;;12.79;50.53;99988.68;2015952;86;21159;-81
2021/03/04 12:20:15;;;;;;;43.25;27.22;;;;;;;12.87;50.36;99993.09;2033485;86;21129;-81
2021/03/04 12:23:17;;;;;;;46.35;27.77;;;;;;;12.92;49.68;99976.06;2027096;86;21574;-81
2021/03/04 12:26:21;;;;;;;44.77;28.67;;;;;;;12.81;49.29;99975.67;2025319;86;21969;-81
2021/03/04 12:29:22;;;;;;;44.35;27.60;;;;;;;12.71;49.94;99975.46;2022819;86;21139;-81
2021/03/04 12:32:24;;;;;;;45.95;29.77;;;;;;;12.68;49.95;99967.84;2015379;85;21223;-83
2021/03/04 12:35:26;;;;;;;49.48;30.02;;;;;;;12.74;50.63;99970.27;2024931;86;21171;-81
2021/03/04 12:38:27;;;;;;;53.10;32.15;;;;;;;12.69;50.58;99968.66;2030336;86;21128;-81
2021/03/04 12:41:29;;;;;;;52.45;30.27;;;;;;;12.67;50.51;99959.55;2023743;86;21610;-81
2021/03/04 12:44:31;;;;;;;48.80;30.82;;;;;;;12.71;50.25;99966.66;2028081;85;21165;-81
2021/03/04 12:47:32;;;;;;;53.90;32.63;;;;;;;12.62;50.33;99955.78;2028958;86;21171;-82
2021/03/04 12:50:35;;;;;;;50.83;31.35;;;;;;;12.59;49.62;99948.17;2028123;86;21195;-82
2021/03/04 12:53:37;;;;;;;52.17;31.73;;;;;;;12.56;50.58;99956.84;2028120;85;21166;-80
2021/03/04 12:56:39;;;;;;;53.65;32.20;;;;;;;12.72;50.57;99957.64;2030605;86;21229;-79
2021/03/04 12:59:41;;;;;;;57.13;35.50;;;;;;;12.85;50.72;99958.34;2009255;85;21227;-80
2021/03/04 13:02:42;;;;;;;59.08;34.48;;;;;;;12.99;51.08;99951.65;2024544;86;21284;-80
2021/03/04 13:05:45;;;;;;;63.68;39.90;;;;;;;12.96;50.36;99948.03;2024742;85;21184;-79
2021/03/04 13:08:48;;;;;;;69.87;39.73;;;;;;;12.76;51.08;99948.30;2025921;86;21182;-79
2021/03/04 13:11:49;;;;;;;72.00;41.73;;;;;;;12.59;51.52;99952.16;2028243;86;21142;-79
2021/03/04 13:14:51;;;;;;;63.48;39.13;;;;;;;12.21;51.76;99945.05;2031687;85;21198;-80
2021/03/04 13:17:53;;;;;;;66.30;41.35;;;;;;;11.89;52.27;99952.84;2009529;85;21282;-80
2021/03/04 13:20:55;;;;;;;68.95;41.83;;;;;;;11.59;52.99;99951.37;2033688;85;21136;-80
2021/03/04 13:23:59;;;;;;;67.67;40.03;;;;;;;11.42;52.83;99952.48;2026972;85;21288;-79
2021/03/04 13:27:01;;;;;;;70.20;41.90;;;;;;;11.16;54.00;99952.31;2029181;85;21626;-79
2021/03/04 13:30:04;;;;;;;69.45;41.30;;;;;;;10.94;54.14;99949.11;2028639;86;21477;-79
2021/03/04 13:33:07;;;;;;;77.60;44.58;;;;;;;10.84;54.53;99944.50;2031661;86;21128;-79
2021/03/04 13:36:10;;;;;;;70.10;42.38;;;;;;;10.72;54.96;99942.22;2033647;86;21183;-81
2021/03/04 13:39:12;;;;;;;76.75;44.20;;;;;;;10.76;55.22;99937.42;2035442;86;21191;-80
2021/03/04 13:42:14;;;;;;;74.62;43.17;;;;;;;10.64;55.66;99942.25;2031113;85;21633;-80
2021/03/04 13:45:15;;;;;;;75.15;43.40;;;;;;;10.54;55.53;99941.64;2025484;86;21666;-79
2021/03/04 13:48:19;;;;;;;77.00;42.67;;;;;;;10.50;55.71;99938.50;2028573;85;21203;-80
2021/03/04 13:51:22;;;;;;;80.50;47.58;;;;;;;10.46;55.68;99941.66;2029288;85;21169;-80
2021/03/04 13:54:24;;;;;;;75.42;46.08;;;;;;;10.34;56.08;99943.85;2022884;86;21239;-80
2021/03/04 13:57:26;;;;;;;79.30;44.98;;;;;;;10.25;56.04;99943.01;2018807;87;21128;-79
2021/03/04 14:00:29;;;;;;;80.50;45.40;;;;;;;10.19;55.89;99935.73;2004975;87;21329;-80
2021/03/04 14:03:32;;;;;;;81.57;47.10;;;;;;;10.17;56.24;99941.70;2019622;86;21184;-81
2021/03/04 14:06:34;;;;;;;85.22;46.85;;;;;;;10.12;56.81;99938.72;2016724;87;21152;-81